Time;durP1;ratioP1;P1;durP2;ratioP2;P2;SDS_P1;SDS_P2;PMS_P1;PMS_P2;Temp;Humidity;BMP_temperature;BMP_pressure;BME280_temperature;BME280_humidity;BME280_pressure;Samples;Min_cycle;Max_cycle;Signal;HPM_P1;HPM_P2
2022/12/30 08:06:36;;;;;;;4.32;1.05;;;;;;;;;;13000003;22;20030;-84
2022/12/30 08:11:54;;;;;;;11.93;2.13;;;;;;;;;;12888166;22;1485328;-83
2022/12/30 08:16:55;;;;;;;9.20;2.00;;;;;;;;;;12914655;23;19996;-83
2022/12/30 08:39:28;;;;;;;11.52;6.18;;;;;;;;;;12884280;23;20008;-89
2022/12/30 08:44:30;;;;;;;9.70;5.45;;;;;;;;;;12926755;22;20032;-88
2022/12/30 08:49:38;;;;;;;11.68;6.93;;;;;;;;;;12941170;23;20015;-87
2022/12/30 09:00:20;;;;;;;12.43;8.10;;;;;;;;;;12934781;22;20008;-87
2022/12/30 09:05:28;;;;;;;17.40;10.18;;;;;;;;;;12902465;23;20014;-87
2022/12/30 09:11:10;;;;;;;11.23;6.47;;;;;;;;;;12922017;22;20008;-87
2022/12/30 09:16:23;;;;;;;5.32;2.42;;;;;;;;;;12900393;23;20015;-88
2022/12/30 09:21:48;;;;;;;11.40;5.65;;;;;;;;;;12837645;23;20023;-87
2022/12/30 09:26:54;;;;;;;13.10;7.20;;;;;;;;;;12814610;23;20013;-88
2022/12/30 09:31:56;;;;;;;9.02;4.40;;;;;;;;;;12837918;23;20020;-88
2022/12/30 09:43:25;;;;;;;5.75;1.95;;;;;;;;;;12935268;22;20012;-87
2022/12/30 09:48:35;;;;;;;7.18;2.70;;;;;;;;;;12905440;23;20027;-88
2022/12/30 09:53:48;;;;;;;6.57;2.90;;;;;;;;;;12905828;23;20008;-86
2022/12/30 09:58:51;;;;;;;4.47;1.30;;;;;;;;;;12908380;23;20004;-87
2022/12/30 10:03:54;;;;;;;3.95;1.30;;;;;;;;;;12830827;23;20017;-77
2022/12/30 10:09:11;;;;;;;5.15;1.40;;;;;;;;;;12815427;23;20023;-79
2022/12/30 10:14:31;;;;;;;4.45;1.80;;;;;;;;;;12822471;23;20000;-78
2022/12/30 10:19:50;;;;;;;4.93;1.85;;;;;;;;;;12819833;23;20009;-78
2022/12/30 10:24:51;;;;;;;3.60;1.58;;;;;;;;;;12822548;23;20009;-78
2022/12/30 10:29:53;;;;;;;5.10;2.33;;;;;;;;;;12827223;23;20420;-78
2022/12/30 10:34:56;;;;;;;3.35;1.40;;;;;;;;;;12818822;23;20016;-78
2022/12/30 10:39:59;;;;;;;6.97;1.52;;;;;;;;;;12820749;23;20001;-78
2022/12/30 10:45:18;;;;;;;3.75;1.25;;;;;;;;;;12819924;23;20013;-78
2022/12/30 10:50:28;;;;;;;5.40;1.00;;;;;;;;;;12821758;23;20330;-77
2022/12/30 10:55:31;;;;;;;4.05;1.40;;;;;;;;;;12804259;23;20064;-77
2022/12/30 11:00:35;;;;;;;4.95;1.00;;;;;;;;;;12822218;23;20009;-78
2022/12/30 11:05:39;;;;;;;7.00;1.27;;;;;;;;;;12816595;23;20017;-79
2022/12/30 11:10:40;;;;;;;4.68;1.02;;;;;;;;;;12820070;23;20085;-77
2022/12/30 11:15:52;;;;;;;4.90;1.35;;;;;;;;;;12820890;23;20001;-78
2022/12/30 11:20:54;;;;;;;3.45;1.33;;;;;;;;;;12815160;23;20005;-78
2022/12/30 11:25:56;;;;;;;3.78;1.00;;;;;;;;;;12827446;23;20009;-78
2022/12/30 11:31:17;;;;;;;3.42;1.10;;;;;;;;;;12826866;23;20028;-78
2022/12/30 11:36:18;;;;;;;3.67;1.40;;;;;;;;;;12826856;23;20013;-79
2022/12/30 11:41:21;;;;;;;5.43;1.20;;;;;;;;;;12829934;23;20001;-78
2022/12/30 11:46:23;;;;;;;4.72;1.30;;;;;;;;;;12831316;23;19997;-77
2022/12/30 11:51:44;;;;;;;4.63;1.60;;;;;;;;;;12820984;23;20069;-78
2022/12/30 11:56:54;;;;;;;4.28;1.30;;;;;;;;;;12819350;23;20016;-78
2022/12/30 12:01:57;;;;;;;2.55;1.15;;;;;;;;;;12819424;23;20044;-78
2022/12/30 12:06:59;;;;;;;5.13;1.20;;;;;;;;;;12820076;23;20421;-78
2022/12/30 12:12:02;;;;;;;5.18;1.50;;;;;;;;;;12821521;23;19994;-77
2022/12/30 12:17:12;;;;;;;6.68;1.40;;;;;;;;;;12852905;23;20016;-77
2022/12/30 12:22:22;;;;;;;4.37;2.03;;;;;;;;;;12821032;23;20013;-77
2022/12/30 12:27:25;;;;;;;7.75;2.72;;;;;;;;;;12814258;23;20231;-77
2022/12/30 12:32:45;;;;;;;3.75;1.10;;;;;;;;;;12814079;23;20072;-77
2022/12/30 12:37:51;;;;;;;4.80;1.80;;;;;;;;;;12820253;23;20088;-77
2022/12/30 12:42:52;;;;;;;4.07;1.40;;;;;;;;;;12819393;23;20005;-79
2022/12/30 12:47:56;;;;;;;4.43;1.50;;;;;;;;;;12820995;23;20056;-78
2022/12/30 12:53:09;;;;;;;3.03;1.30;;;;;;;;;;12819772;23;20008;-78
2022/12/30 12:58:19;;;;;;;3.78;1.10;;;;;;;;;;12819827;23;20025;-78
2022/12/30 13:03:23;;;;;;;2.63;1.25;;;;;;;;;;12818775;23;20044;-78
2022/12/30 13:08:24;;;;;;;4.20;1.40;;;;;;;;;;12829605;23;20012;-79
2022/12/30 13:13:28;;;;;;;4.65;1.63;;;;;;;;;;12822397;23;20009;-80
2022/12/30 13:18:31;;;;;;;4.22;2.05;;;;;;;;;;12826432;23;20008;-81
2022/12/30 13:23:41;;;;;;;9.10;4.07;;;;;;;;;;12822987;23;20005;-80
2022/12/30 13:28:43;;;;;;;4.75;1.50;;;;;;;;;;12825057;23;20001;-80
2022/12/30 13:33:53;;;;;;;4.82;1.52;;;;;;;;;;12817597;23;20009;-78
2022/12/30 13:39:04;;;;;;;5.07;1.23;;;;;;;;;;12814200;23;20016;-80
2022/12/30 13:44:06;;;;;;;3.88;1.20;;;;;;;;;;12815173;23;20024;-81
2022/12/30 13:49:22;;;;;;;3.67;1.30;;;;;;;;;;12814576;23;20060;-81
2022/12/30 13:54:23;;;;;;;3.00;1.23;;;;;;;;;;12814255;23;20055;-81
2022/12/30 13:59:24;;;;;;;;;;;;;;;;;;12817774;23;20065;-80
2022/12/30 14:04:30;;;;;;;5.22;1.65;;;;;;;;;;12812946;23;20305;-80
2022/12/30 14:09:32;;;;;;;3.97;1.30;;;;;;;;;;12812724;23;20399;-79
2022/12/30 14:14:33;;;;;;;10.90;6.65;;;;;;;;;;12814417;23;20092;-81
2022/12/30 14:19:53;;;;;;;10.40;5.78;;;;;;;;;;12812305;23;20005;-80
2022/12/30 14:25:01;;;;;;;4.10;1.73;;;;;;;;;;12815832;23;20009;-80
2022/12/30 14:30:05;;;;;;;5.20;2.08;;;;;;;;;;12813658;23;20433;-79
2022/12/30 14:35:06;;;;;;;4.28;1.75;;;;;;;;;;12824758;23;20008;-80
2022/12/30 14:40:07;;;;;;;;;;;;;;;;;;12821083;23;20094;-80
2022/12/30 14:45:19;;;;;;;4.40;1.40;;;;;;;;;;12824609;23;19916;-79
2022/12/30 14:50:26;;;;;;;3.33;1.30;;;;;;;;;;12823972;23;20263;-79
2022/12/30 14:55:29;;;;;;;4.60;1.33;;;;;;;;;;12835176;23;20005;-79
2022/12/30 15:00:32;;;;;;;4.45;1.38;;;;;;;;;;12842448;23;19989;-79
2022/12/30 15:05:52;;;;;;;3.20;1.20;;;;;;;;;;12832824;23;20139;-80
2022/12/30 15:10:56;;;;;;;2.80;1.15;;;;;;;;;;12807238;23;20005;-79
2022/12/30 15:15:59;;;;;;;4.30;1.42;;;;;;;;;;12816490;23;20005;-79
2022/12/30 15:21:18;;;;;;;3.92;1.60;;;;;;;;;;12822641;23;20032;-80
2022/12/30 15:26:20;;;;;;;3.00;1.25;;;;;;;;;;12825351;23;20041;-79
2022/12/30 15:31:24;;;;;;;3.40;1.30;;;;;;;;;;12826440;23;20029;-79
2022/12/30 15:36:26;;;;;;;4.22;1.30;;;;;;;;;;12825562;23;20069;-79
2022/12/30 15:41:29;;;;;;;2.47;1.05;;;;;;;;;;12831476;23;20069;-78
2022/12/30 15:46:32;;;;;;;2.20;0.80;;;;;;;;;;12840744;23;20444;-79
2022/12/30 15:51:36;;;;;;;5.03;1.80;;;;;;;;;;12821495;23;20016;-79
2022/12/30 15:56:37;;;;;;;2.50;1.17;;;;;;;;;;12815900;23;20001;-80
2022/12/30 16:01:39;;;;;;;3.38;1.13;;;;;;;;;;12816111;23;20044;-79
2022/12/30 16:06:44;;;;;;;2.42;1.20;;;;;;;;;;12811653;23;20001;-79
2022/12/30 16:11:52;;;;;;;4.07;1.00;;;;;;;;;;12810543;23;20012;-78
2022/12/30 16:16:53;;;;;;;1.70;0.88;;;;;;;;;;12811927;23;20441;-78
2022/12/30 16:21:59;;;;;;;2.35;1.23;;;;;;;;;;12812528;23;20040;-79
2022/12/30 16:27:11;;;;;;;2.38;0.90;;;;;;;;;;12812553;23;20001;-78
2022/12/30 16:32:13;;;;;;;2.97;1.02;;;;;;;;;;12809360;23;20402;-79
2022/12/30 16:37:23;;;;;;;2.20;1.17;;;;;;;;;;12816402;23;20005;-78
2022/12/30 16:42:25;;;;;;;2.72;0.95;;;;;;;;;;12815675;23;20015;-78
2022/12/30 16:47:26;;;;;;;;;;;;;;;;;;12825336;23;20005;-78
2022/12/30 16:52:27;;;;;;;2.20;1.00;;;;;;;;;;12806791;23;19906;-79
2022/12/30 16:57:28;;;;;;;2.20;1.40;;;;;;;;;;12807220;23;20650;-79
2022/12/30 17:02:29;;;;;;;1.23;0.95;;;;;;;;;;12805649;23;20120;-79
2022/12/30 17:07:32;;;;;;;1.50;0.93;;;;;;;;;;12804203;23;20032;-78
2022/12/30 17:12:35;;;;;;;1.35;0.90;;;;;;;;;;12803379;23;20009;-78
2022/12/30 17:17:37;;;;;;;1.92;0.90;;;;;;;;;;12806152;23;20088;-80
2022/12/30 17:22:38;;;;;;;2.47;0.82;;;;;;;;;;12817631;23;20009;-79
2022/12/30 17:27:39;;;;;;;1.15;0.88;;;;;;;;;;12817069;23;20008;-79
2022/12/30 17:32:44;;;;;;;4.32;1.50;;;;;;;;;;12813521;23;20453;-79
2022/12/30 17:37:45;;;;;;;1.73;0.90;;;;;;;;;;12814635;23;20044;-80
2022/12/30 17:42:46;;;;;;;1.55;1.10;;;;;;;;;;12813215;23;20005;-79
2022/12/30 17:47:49;;;;;;;;;;;;;;;;;;12810731;23;20020;-79
2022/12/30 17:52:51;;;;;;;1.90;1.00;;;;;;;;;;12809475;23;19951;-80
2022/12/30 17:57:52;;;;;;;1.70;1.10;;;;;;;;;;12810165;23;20005;-79
2022/12/30 18:02:54;;;;;;;2.55;0.93;;;;;;;;;;12812773;23;20068;-79
2022/12/30 18:07:55;;;;;;;1.77;1.23;;;;;;;;;;12818904;23;20001;-79
2022/12/30 18:12:56;;;;;;;2.17;1.00;;;;;;;;;;12815482;23;20013;-80
2022/12/30 18:17:57;;;;;;;2.40;1.10;;;;;;;;;;12811550;23;20005;-80
2022/12/30 18:22:58;;;;;;;1.17;0.80;;;;;;;;;;12812758;23;20001;-80
2022/12/30 18:27:59;;;;;;;1.67;0.90;;;;;;;;;;12809951;23;20008;-80
2022/12/30 18:33:00;;;;;;;1.17;0.90;;;;;;;;;;12810282;23;20078;-80
2022/12/30 18:38:02;;;;;;;1.40;0.90;;;;;;;;;;12810369;23;20031;-80
2022/12/30 18:43:04;;;;;;;2.17;1.38;;;;;;;;;;12783629;23;20040;-80
2022/12/30 18:48:05;;;;;;;1.33;0.93;;;;;;;;;;12811243;23;20009;-81
2022/12/30 18:53:06;;;;;;;1.40;0.80;;;;;;;;;;12808808;23;20052;-79
2022/12/30 18:58:07;;;;;;;;;;;;;;;;;;12810839;23;20001;-79
2022/12/30 19:03:08;;;;;;;2.00;1.00;;;;;;;;;;12810901;23;19955;-81
2022/12/30 19:08:09;;;;;;;2.22;1.05;;;;;;;;;;12811275;23;20005;-80
2022/12/30 19:13:10;;;;;;;2.47;1.40;;;;;;;;;;12811089;23;20009;-80
2022/12/30 19:18:11;;;;;;;2.17;1.13;;;;;;;;;;12812387;23;20437;-80
2022/12/30 19:23:12;;;;;;;1.58;0.90;;;;;;;;;;12814322;23;20060;-79
2022/12/30 19:28:13;;;;;;;3.20;1.73;;;;;;;;;;12815516;23;20001;-80
2022/12/30 19:33:14;;;;;;;2.28;1.15;;;;;;;;;;12811821;23;20329;-79
2022/12/30 19:38:15;;;;;;;;;;;;;;;;;;12808632;23;20084;-80
2022/12/30 19:43:16;;;;;;;49.17;38.70;;;;;;;;;;12810779;23;19936;-80
2022/12/30 19:48:20;;;;;;;;;;;;;;;;;;12808530;23;20009;-81
2022/12/30 19:53:21;;;;;;;4.35;3.13;;;;;;;;;;12805976;23;19905;-80
2022/12/30 19:58:22;;;;;;;3.90;3.03;;;;;;;;;;12807077;23;20425;-81
2022/12/30 20:03:23;;;;;;;6.10;3.35;;;;;;;;;;12808441;23;20008;-81
2022/12/30 20:08:24;;;;;;;3.60;2.33;;;;;;;;;;12812607;23;20333;-81
2022/12/30 20:13:27;;;;;;;2.78;2.30;;;;;;;;;;12810840;23;20005;-81
2022/12/30 20:18:28;;;;;;;2.75;2.30;;;;;;;;;;12810825;23;20012;-81
